Time,TemperatureF,DewpointF,PressureIn,WindDirection,WindDirectionDegrees,WindSpeedMPH,WindSpeedGustMPH,Humidity,HourlyPrecipIn,Conditions,Clouds,dailyrainin,SoftwareType,DateUTC
2013-01-15 00:02:00,55.8,54.4,30.07,East,90,0.0,1.8,95,0.00,,,0.00,WUHU216HW,2013-01-15 05:02:00,
2013-01-15 00:07:00,55.8,54.4,30.07,WSW,248,1.1,1.1,95,0.00,,,0.00,WUHU216HW,2013-01-15 05:07:00,
2013-01-15 00:12:00,55.8,54.4,30.07,SE,135,0.0,1.1,95,0.00,,,0.00,WUHU216HW,2013-01-15 05:12:00,
2013-01-15 00:17:00,55.8,54.4,30.07,SE,135,0.0,0.7,95,0.00,,,0.00,WUHU216HW,2013-01-15 05:17:00,
2013-01-15 00:22:00,55.8,54.4,30.07,WSW,248,0.0,1.1,95,0.00,,,0.00,WUHU216HW,2013-01-15 05:22:00,
2013-01-15 00:27:00,55.8,54.4,30.07,SSE,158,0.0,1.8,95,0.00,,,0.00,WUHU216HW,2013-01-15 05:27:00,
2013-01-15 00:32:00,55.8,54.4,30.06,SE,135,0.0,1.8,95,0.00,,,0.00,WUHU216HW,2013-01-15 05:32:00,
2013-01-15 00:37:00,55.8,54.1,30.07,West,270,0.0,1.6,94,0.00,,,0.00,WUHU216HW,2013-01-15 05:37:00,
2013-01-15 00:42:00,55.8,54.4,30.08,SE,135,0.0,1.1,95,0.00,,,0.00,WUHU216HW,2013-01-15 05:42:00,
2013-01-15 00:47:00,55.8,54.1,30.07,SE,135,0.0,1.8,94,0.00,,,0.00,WUHU216HW,2013-01-15 05:47:00,
2013-01-15 00:52:00,55.8,54.1,30.07,ESE,113,0.4,1.8,94,0.00,,,0.00,WUHU216HW,2013-01-15 05:52:00,
2013-01-15 00:57:00,55.6,53.9,30.07,ESE,113,0.0,0.7,94,0.00,,,0.00,WUHU216HW,2013-01-15 05:57:00,
2013-01-15 01:02:00,55.4,54.0,30.07,ESE,113,0.0,0.0,95,0.00,,,0.00,WUHU216HW,2013-01-15 06:02:00,
2013-01-15 01:07:00,55.4,54.0,30.07,WSW,248,0.4,0.4,95,0.00,,,0.00,WUHU216HW,2013-01-15 06:07:00,
2013-01-15 01:12:00,55.4,54.0,30.07,WSW,248,0.0,0.4,95,0.00,,,0.00,WUHU216HW,2013-01-15 06:12:00,
2013-01-15 01:17:00,55.3,53.8,30.07,WSW,248,0.0,0.0,95,0.00,,,0.00,WUHU216HW,2013-01-15 06:17:00,
2013-01-15 01:22:00,55.3,53.8,30.07,SE,135,0.0,0.9,95,0.00,,,0.00,WUHU216HW,2013-01-15 06:22:00,
2013-01-15 01:27:00,55.3,53.8,30.07,SSW,203,0.4,0.9,95,0.00,,,0.00,WUHU216HW,2013-01-15 06:27:00,
2013-01-15 01:32:00,55.1,53.6,30.07,SW,225,0.0,0.9,95,0.00,,,0.00,WUHU216HW,2013-01-15 06:32:00,
2013-01-15 01:37:00,55.1,53.6,30.07,South,180,0.0,0.9,95,0.00,,,0.00,WUHU216HW,2013-01-15 06:37:00,
2013-01-15 01:42:00,55.1,53.6,30.07,ESE,113,0.4,0.9,95,0.00,,,0.00,WUHU216HW,2013-01-15 06:42:00,
2013-01-15 01:47:00,55.1,53.6,30.07,ESE,113,0.4,0.9,95,0.00,,,0.00,WUHU216HW,2013-01-15 06:47:00,
2013-01-15 01:52:00,55.1,53.6,30.07,SSE,158,1.1,1.1,95,0.00,,,0.00,WUHU216HW,2013-01-15 06:52:00,
2013-01-15 01:57:00,55.1,53.6,30.07,North,0,0.2,1.6,95,0.00,,,0.00,WUHU216HW,2013-01-15 06:57:00,
2013-01-15 02:02:00,55.1,53.6,30.07,North,0,0.2,1.6,95,0.00,,,0.00,WUHU216HW,2013-01-15 07:02:00,
2013-01-15 02:07:00,55.1,53.6,30.07,SSE,158,0.0,1.1,95,0.00,,,0.00,WUHU216HW,2013-01-15 07:07:00,
2013-01-15 02:12:00,55.1,53.6,30.07,West,270,0.2,3.1,95,0.00,,,0.00,WUHU216HW,2013-01-15 07:12:00,
2013-01-15 02:18:00,55.1,53.6,30.07,NW,315,0.0,3.1,95,0.00,,,0.00,WUHU216HW,2013-01-15 07:18:00,
2013-01-15 02:23:00,55.1,53.6,30.05,WNW,293,0.0,0.4,95,0.00,,,0.00,WUHU216HW,2013-01-15 07:23:00,
2013-01-15 02:28:00,55.1,53.6,30.06,NNE,23,0.4,0.4,95,0.00,,,0.00,WUHU216HW,2013-01-15 07:28:00,
2013-01-15 02:33:00,55.1,53.6,30.06,SSE,158,1.1,1.3,95,0.00,,,0.00,WUHU216HW,2013-01-15 07:33:00,
2013-01-15 02:38:00,55.1,53.6,30.06,SE,135,0.0,1.3,95,0.00,,,0.00,WUHU216HW,2013-01-15 07:38:00,
2013-01-15 02:43:00,55.1,53.6,30.06,SSE,158,0.0,1.3,95,0.00,,,0.00,WUHU216HW,2013-01-15 07:43:00,
2013-01-15 02:48:00,55.1,53.6,30.05,SSE,158,0.4,0.7,95,0.00,,,0.00,WUHU216HW,2013-01-15 07:48:00,
2013-01-15 02:53:00,55.3,53.8,30.06,ESE,113,0.2,1.1,95,0.00,,,0.00,WUHU216HW,2013-01-15 07:53:00,
2013-01-15 02:58:00,55.3,53.8,30.05,ESE,113,0.0,1.1,95,0.00,,,0.00,WUHU216HW,2013-01-15 07:58:00,
2013-01-15 03:03:00,55.3,53.8,30.05,SE,135,0.0,0.9,95,0.00,,,0.00,WUHU216HW,2013-01-15 08:03:00,
2013-01-15 03:08:00,55.3,53.8,30.05,ENE,68,0.0,0.9,95,0.00,,,0.00,WUHU216HW,2013-01-15 08:08:00,
2013-01-15 03:13:00,55.4,54.0,30.04,ENE,68,0.2,0.2,95,0.00,,,0.00,WUHU216HW,2013-01-15 08:13:00,
2013-01-15 03:18:00,55.4,54.0,30.05,SE,135,1.1,1.1,95,0.00,,,0.00,WUHU216HW,2013-01-15 08:18:00,
2013-01-15 03:23:00,55.4,54.0,30.05,SSE,158,0.2,1.6,95,0.00,,,0.00,WUHU216HW,2013-01-15 08:23:00,
2013-01-15 03:28:00,55.4,54.0,30.04,SE,135,1.1,1.6,95,0.00,,,0.00,WUHU216HW,2013-01-15 08:28:00,
2013-01-15 03:33:00,55.4,54.0,30.04,NE,45,0.4,1.1,95,0.00,,,0.00,WUHU216HW,2013-01-15 08:33:00,
2013-01-15 03:38:00,55.4,54.0,30.04,SW,225,0.0,0.7,95,0.00,,,0.00,WUHU216HW,2013-01-15 08:38:00,
2013-01-15 03:43:00,55.4,54.0,30.05,NE,45,0.2,1.1,95,0.00,,,0.00,WUHU216HW,2013-01-15 08:43:00,
2013-01-15 03:48:00,55.4,54.0,30.05,ENE,68,0.4,2.7,95,0.00,,,0.00,WUHU216HW,2013-01-15 08:48:00,
2013-01-15 03:53:00,55.3,53.8,30.04,West,270,1.1,1.6,95,0.00,,,0.00,WUHU216HW,2013-01-15 08:53:00,
2013-01-15 03:58:00,55.1,53.6,30.03,West,270,0.0,1.6,95,0.00,,,0.00,WUHU216HW,2013-01-15 08:58:00,
2013-01-15 04:03:00,55.1,53.6,30.03,SE,135,0.2,1.1,95,0.00,,,0.00,WUHU216HW,2013-01-15 09:03:00,
2013-01-15 04:08:00,55.1,53.6,30.03,SSE,158,0.0,1.1,95,0.00,,,0.00,WUHU216HW,2013-01-15 09:08:00,
2013-01-15 04:13:00,55.1,53.6,30.04,ESE,113,0.4,1.6,95,0.00,,,0.00,WUHU216HW,2013-01-15 09:13:00,
2013-01-15 04:18:00,55.3,53.8,30.03,SW,225,0.2,1.6,95,0.00,,,0.00,WUHU216HW,2013-01-15 09:18:00,
2013-01-15 04:23:00,55.1,53.6,30.03,SW,225,0.0,1.3,95,0.00,,,0.00,WUHU216HW,2013-01-15 09:23:00,
2013-01-15 04:28:00,55.1,53.6,30.03,SW,225,0.0,0.0,95,0.00,,,0.00,WUHU216HW,2013-01-15 09:28:00,
2013-01-15 04:33:00,55.1,53.6,30.03,SSE,158,0.0,0.9,95,0.00,,,0.00,WUHU216HW,2013-01-15 09:33:00,
2013-01-15 04:39:00,55.1,53.6,29.99,SSE,158,0.0,0.9,95,0.00,,,0.00,WUHU216HW,2013-01-15 09:39:00,
2013-01-15 04:44:00,55.1,53.6,29.99,SSE,158,0.0,0.2,95,0.00,,,0.00,WUHU216HW,2013-01-15 09:44:00,
2013-01-15 04:49:00,55.1,53.6,29.99,ESE,113,0.0,1.1,95,0.00,,,0.00,WUHU216HW,2013-01-15 09:49:00,
2013-01-15 04:54:00,55.1,53.6,29.99,SE,135,0.0,1.1,95,0.00,,,0.00,WUHU216HW,2013-01-15 09:54:00,
2013-01-15 04:59:00,55.1,53.6,30.02,NE,45,0.0,0.9,95,0.00,,,0.00,WUHU216HW,2013-01-15 09:59:00,
2013-01-15 05:04:00,55.1,53.6,30.03,SE,135,0.0,1.1,95,0.00,,,0.00,WUHU216HW,2013-01-15 10:04:00,
2013-01-15 05:09:00,55.1,53.6,30.03,WSW,248,0.0,1.1,95,0.00,,,0.00,WUHU216HW,2013-01-15 10:09:00,
2013-01-15 05:14:00,55.1,53.6,30.03,SW,225,0.2,1.1,95,0.00,,,0.00,WUHU216HW,2013-01-15 10:14:00,
2013-01-15 05:19:00,55.1,53.6,30.03,SE,135,1.8,1.8,95,0.00,,,0.00,WUHU216HW,2013-01-15 10:19:00,
2013-01-15 05:24:00,54.9,53.5,30.03,WNW,293,0.0,1.8,95,0.00,,,0.00,WUHU216HW,2013-01-15 10:24:00,
2013-01-15 05:29:00,54.9,53.5,30.04,SE,135,0.2,1.1,95,0.00,,,0.00,WUHU216HW,2013-01-15 10:29:00,
2013-01-15 05:34:00,54.9,53.5,30.04,SSW,203,0.4,1.1,95,0.00,,,0.00,WUHU216HW,2013-01-15 10:34:00,
2013-01-15 05:39:00,54.7,53.3,30.03,SE,135,0.2,0.9,95,0.00,,,0.00,WUHU216HW,2013-01-15 10:39:00,
2013-01-15 05:44:00,54.7,53.3,30.03,ESE,113,0.4,0.9,95,0.00,,,0.00,WUHU216HW,2013-01-15 10:44:00,
2013-01-15 05:49:00,54.7,53.3,30.04,NE,45,0.0,0.4,95,0.00,,,0.00,WUHU216HW,2013-01-15 10:49:00,
2013-01-15 05:54:00,54.7,53.3,30.04,East,90,0.2,0.7,95,0.00,,,0.00,WUHU216HW,2013-01-15 10:54:00,
2013-01-15 05:59:00,54.7,53.3,30.05,NE,45,0.0,0.7,95,0.00,,,0.00,WUHU216HW,2013-01-15 10:59:00,
2013-01-15 06:04:00,54.5,53.1,30.05,NE,45,0.0,0.4,95,0.00,,,0.00,WUHU216HW,2013-01-15 11:04:00,
2013-01-15 06:09:00,54.7,53.3,30.04,ENE,68,0.0,0.2,95,0.00,,,0.00,WUHU216HW,2013-01-15 11:09:00,
2013-01-15 06:14:00,54.5,53.1,30.05,East,90,0.4,0.4,95,0.00,,,0.00,WUHU216HW,2013-01-15 11:14:00,
2013-01-15 06:19:00,54.5,53.1,30.05,ESE,113,0.4,0.4,95,0.00,,,0.00,WUHU216HW,2013-01-15 11:19:00,
2013-01-15 06:24:00,54.5,53.1,30.05,SE,135,0.0,1.3,95,0.00,,,0.00,WUHU216HW,2013-01-15 11:24:00,
2013-01-15 06:29:00,54.5,53.1,30.04,SE,135,0.0,1.3,95,0.00,,,0.00,WUHU216HW,2013-01-15 11:29:00,
2013-01-15 06:34:00,54.4,52.9,30.04,SE,135,0.0,0.0,95,0.00,,,0.00,WUHU216HW,2013-01-15 11:34:00,
2013-01-15 06:39:00,54.4,52.9,30.04,SE,135,0.0,0.0,95,0.00,,,0.00,WUHU216HW,2013-01-15 11:39:00,
2013-01-15 06:44:00,54.4,52.9,30.04,West,270,0.4,1.1,95,0.00,,,0.00,WUHU216HW,2013-01-15 11:44:00,
2013-01-15 06:49:00,54.4,52.9,30.05,SSE,158,0.7,1.1,95,0.00,,,0.00,WUHU216HW,2013-01-15 11:49:00,
2013-01-15 06:55:00,54.4,52.9,30.04,South,180,1.1,1.1,95,0.00,,,0.00,WUHU216HW,2013-01-15 11:55:00,
2013-01-15 07:00:00,54.4,52.9,30.05,SSW,203,0.4,1.1,95,0.00,,,0.00,WUHU216HW,2013-01-15 12:00:00,
2013-01-15 07:05:00,54.4,52.9,30.05,ESE,113,1.1,1.1,95,0.00,,,0.00,WUHU216HW,2013-01-15 12:05:00,
2013-01-15 07:10:00,54.4,52.9,30.06,NNE,23,0.4,1.1,95,0.00,,,0.00,WUHU216HW,2013-01-15 12:10:00,
2013-01-15 07:15:00,54.4,52.9,30.06,ESE,113,0.0,1.1,95,0.00,,,0.00,WUHU216HW,2013-01-15 12:15:00,
2013-01-15 07:20:00,54.4,52.9,30.06,NNE,23,0.9,0.9,95,0.00,,,0.00,WUHU216HW,2013-01-15 12:20:00,
2013-01-15 07:25:00,54.4,52.9,30.05,ENE,68,0.0,0.9,95,0.00,,,0.00,WUHU216HW,2013-01-15 12:25:00,
2013-01-15 07:30:00,54.4,52.9,30.05,SW,225,0.2,1.8,95,0.00,,,0.00,WUHU216HW,2013-01-15 12:30:00,
2013-01-15 07:35:00,54.2,52.7,30.06,WSW,248,0.0,1.8,95,0.00,,,0.00,WUHU216HW,2013-01-15 12:35:00,
2013-01-15 07:40:00,54.2,52.7,30.06,SSW,203,0.0,0.7,95,0.00,,,0.00,WUHU216HW,2013-01-15 12:40:00,
2013-01-15 07:45:00,54.2,52.7,30.06,WNW,293,1.1,1.1,95,0.00,,,0.00,WUHU216HW,2013-01-15 12:45:00,
2013-01-15 07:50:00,54.0,52.6,30.06,SE,135,0.4,1.6,95,0.00,,,0.00,WUHU216HW,2013-01-15 12:50:00,
2013-01-15 07:55:00,54.0,52.6,30.05,ESE,113,0.0,1.6,95,0.00,,,0.00,WUHU216HW,2013-01-15 12:55:00,
2013-01-15 08:00:00,54.0,52.6,30.07,ENE,68,0.7,0.9,95,0.00,,,0.00,WUHU216HW,2013-01-15 13:00:00,
2013-01-15 08:05:00,54.0,52.6,30.07,SE,135,0.0,0.9,95,0.00,,,0.00,WUHU216HW,2013-01-15 13:05:00,
2013-01-15 08:10:00,54.0,52.6,30.07,SW,225,0.0,0.7,95,0.00,,,0.00,WUHU216HW,2013-01-15 13:10:00,
2013-01-15 08:15:00,54.0,52.6,30.06,West,270,1.6,1.6,95,0.00,,,0.00,WUHU216HW,2013-01-15 13:15:00,
2013-01-15 08:20:00,54.0,52.6,30.07,ESE,113,0.0,1.6,95,0.00,,,0.00,WUHU216HW,2013-01-15 13:20:00,
2013-01-15 08:25:00,54.0,52.6,30.06,SSW,203,0.4,1.6,95,0.00,,,0.00,WUHU216HW,2013-01-15 13:25:00,
2013-01-15 08:30:00,54.0,52.6,30.07,SSW,203,0.2,0.7,95,0.00,,,0.00,WUHU216HW,2013-01-15 13:30:00,
2013-01-15 08:35:00,54.0,52.6,30.06,SE,135,0.4,0.7,95,0.00,,,0.00,WUHU216HW,2013-01-15 13:35:00,
2013-01-15 08:40:00,53.8,52.4,30.07,NNE,23,0.7,0.9,95,0.00,,,0.00,WUHU216HW,2013-01-15 13:40:00,
2013-01-15 08:46:00,53.8,52.4,30.06,South,180,0.9,0.9,95,0.00,,,0.00,WUHU216HW,2013-01-15 13:46:00,
2013-01-15 08:51:00,53.8,52.4,30.06,West,270,0.0,1.1,95,0.00,,,0.00,WUHU216HW,2013-01-15 13:51:00,
2013-01-15 08:56:00,53.8,52.4,30.07,NW,315,0.2,1.1,95,0.00,,,0.00,WUHU216HW,2013-01-15 13:56:00,
2013-01-15 09:01:00,53.8,52.4,30.07,NW,315,0.0,0.9,95,0.00,,,0.00,WUHU216HW,2013-01-15 14:01:00,
2013-01-15 09:06:00,53.8,52.4,30.06,ENE,68,0.4,1.1,95,0.00,,,0.00,WUHU216HW,2013-01-15 14:06:00,
2013-01-15 09:11:00,53.8,52.4,30.06,SE,135,0.4,1.1,95,0.00,,,0.00,WUHU216HW,2013-01-15 14:11:00,
2013-01-15 09:16:00,53.8,52.4,30.07,East,90,0.7,0.7,95,0.00,,,0.00,WUHU216HW,2013-01-15 14:16:00,
2013-01-15 09:21:00,53.8,52.4,30.06,SSW,203,0.4,0.9,95,0.00,,,0.00,WUHU216HW,2013-01-15 14:21:00,
2013-01-15 09:26:00,54.0,52.6,30.06,West,270,0.0,0.9,95,0.00,,,0.00,WUHU216HW,2013-01-15 14:26:00,
2013-01-15 09:31:00,54.0,52.6,30.07,East,90,0.7,0.7,95,0.00,,,0.00,WUHU216HW,2013-01-15 14:31:00,
2013-01-15 09:36:00,54.0,52.6,30.06,SSE,158,0.4,1.6,95,0.00,,,0.00,WUHU216HW,2013-01-15 14:36:00,
2013-01-15 09:41:00,54.0,52.8,30.07,WNW,293,0.0,1.6,96,0.00,,,0.00,WUHU216HW,2013-01-15 14:41:00,
2013-01-15 09:46:00,54.0,52.6,30.07,SE,135,0.0,0.7,95,0.00,,,0.00,WUHU216HW,2013-01-15 14:46:00,
2013-01-15 09:51:00,54.0,52.6,30.07,SW,225,0.4,0.4,95,0.00,,,0.00,WUHU216HW,2013-01-15 14:51:00,
2013-01-15 09:56:00,54.0,52.6,30.07,ESE,113,1.1,1.1,95,0.00,,,0.00,WUHU216HW,2013-01-15 14:56:00,
2013-01-15 10:01:00,54.0,52.8,30.07,ESE,113,0.4,1.1,96,0.00,,,0.00,WUHU216HW,2013-01-15 15:01:00,
2013-01-15 10:06:00,54.0,52.8,30.06,WSW,248,0.0,1.1,96,0.00,,,0.00,WUHU216HW,2013-01-15 15:06:00,
2013-01-15 10:11:00,54.0,52.8,30.07,SSW,203,0.0,1.1,96,0.00,,,0.00,WUHU216HW,2013-01-15 15:11:00,
2013-01-15 10:16:00,53.8,52.7,30.08,SE,135,0.4,0.9,96,0.00,,,0.00,WUHU216HW,2013-01-15 15:16:00,
2013-01-15 10:21:00,54.0,52.8,30.07,ESE,113,0.4,1.1,96,0.00,,,0.00,WUHU216HW,2013-01-15 15:21:00,
2013-01-15 10:26:00,54.0,52.8,30.07,ESE,113,0.0,1.1,96,0.00,,,0.00,WUHU216HW,2013-01-15 15:26:00,
2013-01-15 10:32:00,54.0,52.8,30.07,ESE,113,0.7,0.7,96,0.00,,,0.00,WUHU216HW,2013-01-15 15:32:00,
2013-01-15 10:37:00,54.0,52.8,30.07,East,90,0.0,0.7,96,0.00,,,0.00,WUHU216HW,2013-01-15 15:37:00,
2013-01-15 10:42:00,54.0,52.8,30.07,NNW,338,0.4,1.1,96,0.00,,,0.00,WUHU216HW,2013-01-15 15:42:00,
2013-01-15 10:47:00,54.0,52.8,30.05,East,90,0.0,1.1,96,0.00,,,0.00,WUHU216HW,2013-01-15 15:47:00,
2013-01-15 10:52:00,54.0,52.8,30.06,East,90,0.0,0.2,96,0.00,,,0.00,WUHU216HW,2013-01-15 15:52:00,
2013-01-15 10:57:00,54.0,52.8,30.05,East,90,0.4,0.4,96,0.00,,,0.00,WUHU216HW,2013-01-15 15:57:00,
2013-01-15 11:02:00,54.2,53.0,30.06,ESE,113,0.0,0.4,96,0.00,,,0.00,WUHU216HW,2013-01-15 16:02:00,
2013-01-15 11:07:00,54.2,53.0,30.06,East,90,0.2,0.4,96,0.00,,,0.00,WUHU216HW,2013-01-15 16:07:00,
2013-01-15 11:12:00,54.0,52.8,30.05,SSE,158,0.7,1.6,96,0.00,,,0.00,WUHU216HW,2013-01-15 16:12:00,
2013-01-15 11:17:00,54.0,52.8,30.05,ESE,113,0.7,1.6,96,0.00,,,0.00,WUHU216HW,2013-01-15 16:17:00,
2013-01-15 11:22:00,54.0,52.8,30.05,ESE,113,1.3,1.3,96,0.00,,,0.00,WUHU216HW,2013-01-15 16:22:00,
2013-01-15 11:27:00,53.8,52.7,30.05,SE,135,0.0,1.3,96,0.00,,,0.00,WUHU216HW,2013-01-15 16:27:00,
2013-01-15 11:32:00,53.8,52.7,30.05,SE,135,0.0,1.1,96,0.00,,,0.00,WUHU216HW,2013-01-15 16:32:00,
2013-01-15 11:37:00,53.8,52.7,30.05,SE,135,0.0,0.0,96,0.00,,,0.00,WUHU216HW,2013-01-15 16:37:00,
2013-01-15 11:42:00,53.8,52.7,30.05,SE,135,0.0,0.0,96,0.00,,,0.00,WUHU216HW,2013-01-15 16:42:00,
2013-01-15 11:47:00,53.8,52.7,30.05,SE,135,0.4,0.4,96,0.00,,,0.00,WUHU216HW,2013-01-15 16:47:00,
2013-01-15 11:52:00,53.8,52.7,30.04,SE,135,0.0,0.4,96,0.00,,,0.00,WUHU216HW,2013-01-15 16:52:00,
2013-01-15 11:57:00,54.0,52.8,30.03,SE,135,0.0,0.4,96,0.00,,,0.00,WUHU216HW,2013-01-15 16:57:00,
2013-01-15 12:02:00,54.0,52.8,30.03,SE,135,0.0,0.4,96,0.00,,,0.00,WUHU216HW,2013-01-15 17:02:00,
2013-01-15 12:07:00,54.0,52.8,30.03,SE,135,0.0,0.4,96,0.00,,,0.00,WUHU216HW,2013-01-15 17:07:00,
2013-01-15 12:12:00,54.0,52.8,30.02,SE,135,0.0,0.0,96,0.00,,,0.00,WUHU216HW,2013-01-15 17:12:00,
2013-01-15 12:17:00,54.0,52.8,30.02,ESE,113,0.0,0.4,96,0.00,,,0.00,WUHU216HW,2013-01-15 17:17:00,
2013-01-15 12:23:00,54.0,52.8,30.02,ESE,113,0.0,0.7,96,0.00,,,0.00,WUHU216HW,2013-01-15 17:23:00,
2013-01-15 12:28:00,53.8,52.7,30.02,SE,135,0.2,0.7,96,0.00,,,0.00,WUHU216HW,2013-01-15 17:28:00,
2013-01-15 12:33:00,53.8,52.4,30.02,ESE,113,0.0,0.9,95,0.00,,,0.00,WUHU216HW,2013-01-15 17:33:00,
2013-01-15 12:38:00,53.8,52.7,30.02,ESE,113,0.0,0.9,96,0.00,,,0.00,WUHU216HW,2013-01-15 17:38:00,
2013-01-15 12:43:00,53.8,52.7,30.02,ESE,113,0.0,0.4,96,0.00,,,0.00,WUHU216HW,2013-01-15 17:43:00,
2013-01-15 12:48:00,53.6,52.5,30.02,ESE,113,0.0,0.4,96,0.00,,,0.00,WUHU216HW,2013-01-15 17:48:00,
2013-01-15 12:53:00,53.6,52.5,30.01,ESE,113,0.0,0.4,96,0.00,,,0.00,WUHU216HW,2013-01-15 17:53:00,
2013-01-15 12:58:00,53.6,52.5,30.00,ESE,113,0.0,0.0,96,0.00,,,0.00,WUHU216HW,2013-01-15 17:58:00,
2013-01-15 13:03:00,53.6,52.5,30.01,ESE,113,0.0,0.0,96,0.00,,,0.00,WUHU216HW,2013-01-15 18:03:00,
2013-01-15 13:08:00,53.6,52.5,30.00,SSE,158,0.2,0.7,96,0.00,,,0.00,WUHU216HW,2013-01-15 18:08:00,
2013-01-15 13:13:00,53.5,52.3,30.00,SE,135,0.7,0.7,96,0.00,,,0.00,WUHU216HW,2013-01-15 18:13:00,
2013-01-15 13:18:00,53.3,51.8,30.00,SE,135,0.9,0.9,95,0.00,,,0.00,WUHU216HW,2013-01-15 18:18:00,
2013-01-15 13:23:00,53.1,51.9,29.99,SE,135,1.3,1.3,96,0.00,,,0.00,WUHU216HW,2013-01-15 18:23:00,
2013-01-15 13:28:00,53.1,51.7,30.00,SE,135,1.1,1.3,95,0.00,,,0.00,WUHU216HW,2013-01-15 18:28:00,
2013-01-15 13:33:00,52.9,51.8,30.01,SSE,158,0.0,1.1,96,0.00,,,0.00,WUHU216HW,2013-01-15 18:33:00,
2013-01-15 13:38:00,52.9,51.5,30.01,SSE,158,0.0,1.1,95,0.00,,,0.00,WUHU216HW,2013-01-15 18:38:00,
2013-01-15 13:43:00,52.9,51.5,29.99,SSE,158,0.0,0.2,95,0.00,,,0.00,WUHU216HW,2013-01-15 18:43:00,
2013-01-15 13:48:00,52.9,51.5,29.98,SE,135,0.2,0.4,95,0.00,,,0.00,WUHU216HW,2013-01-15 18:48:00,
2013-01-15 13:53:00,52.9,51.5,29.99,SE,135,0.7,0.7,95,0.00,,,0.00,WUHU216HW,2013-01-15 18:53:00,
2013-01-15 13:58:00,52.6,51.1,29.99,SE,135,0.4,2.2,95,0.00,,,0.00,WUHU216HW,2013-01-15 18:58:00,
2013-01-15 14:03:00,52.6,51.1,30.00,SE,135,0.0,2.2,95,0.00,,,0.00,WUHU216HW,2013-01-15 19:03:00,
2013-01-15 14:08:00,52.6,51.1,29.99,SE,135,1.1,1.1,95,0.00,,,0.00,WUHU216HW,2013-01-15 19:08:00,
2013-01-15 14:13:00,52.6,51.1,29.98,SE,135,0.9,1.1,95,0.00,,,0.00,WUHU216HW,2013-01-15 19:13:00,
2013-01-15 14:18:00,52.4,50.9,29.99,SE,135,0.0,0.9,95,0.00,,,0.00,WUHU216HW,2013-01-15 19:18:00,
2013-01-15 14:23:00,52.4,50.9,29.98,SE,135,0.0,0.2,95,0.00,,,0.00,WUHU216HW,2013-01-15 19:23:00,
2013-01-15 14:28:00,52.4,50.9,29.99,SE,135,0.0,0.4,95,0.00,,,0.00,WUHU216HW,2013-01-15 19:28:00,
2013-01-15 14:33:00,52.4,50.9,29.98,SE,135,0.7,0.7,95,0.00,,,0.00,WUHU216HW,2013-01-15 19:33:00,
2013-01-15 14:38:00,52.4,50.9,29.98,SE,135,0.2,0.7,95,0.00,,,0.00,WUHU216HW,2013-01-15 19:38:00,
2013-01-15 14:43:00,52.4,50.9,29.98,SE,135,1.1,1.1,95,0.00,,,0.00,WUHU216HW,2013-01-15 19:43:00,
2013-01-15 14:48:00,52.2,50.8,29.98,SE,135,0.0,1.1,95,0.00,,,0.00,WUHU216HW,2013-01-15 19:48:00,
2013-01-15 14:53:00,52.2,50.8,29.99,SE,135,0.0,0.4,95,0.00,,,0.00,WUHU216HW,2013-01-15 19:53:00,
2013-01-15 14:58:00,52.2,50.8,29.99,SE,135,0.0,0.4,95,0.00,,,0.00,WUHU216HW,2013-01-15 19:58:00,
2013-01-15 15:03:00,52.2,50.8,29.98,SE,135,0.0,0.0,95,0.00,,,0.00,WUHU216HW,2013-01-15 20:03:00,
2013-01-15 15:08:00,52.0,50.6,29.98,ESE,113,0.9,0.9,95,0.00,,,0.00,WUHU216HW,2013-01-15 20:08:00,
2013-01-15 15:13:00,51.8,50.4,29.98,SE,135,0.0,0.9,95,0.00,,,0.00,WUHU216HW,2013-01-15 20:13:00,
2013-01-15 15:18:00,51.8,50.4,29.98,SE,135,0.0,0.4,95,0.00,,,0.00,WUHU216HW,2013-01-15 20:18:00,
2013-01-15 15:23:00,51.8,50.4,29.99,SE,135,0.0,0.0,95,0.00,,,0.00,WUHU216HW,2013-01-15 20:23:00,
2013-01-15 15:28:00,51.8,50.4,29.99,SE,135,0.0,0.0,95,0.00,,,0.00,WUHU216HW,2013-01-15 20:28:00,
2013-01-15 15:33:00,51.8,50.4,29.99,SE,135,0.0,0.0,95,0.00,,,0.00,WUHU216HW,2013-01-15 20:33:00,
2013-01-15 15:38:00,51.7,50.2,29.99,SE,135,0.0,1.1,95,0.00,,,0.00,WUHU216HW,2013-01-15 20:38:00,
2013-01-15 15:43:00,51.7,50.2,29.99,SE,135,0.0,1.1,95,0.00,,,0.00,WUHU216HW,2013-01-15 20:43:00,
2013-01-15 15:48:00,51.7,50.2,30.00,SE,135,0.0,0.2,95,0.00,,,0.00,WUHU216HW,2013-01-15 20:48:00,
2013-01-15 15:53:00,51.7,50.2,30.00,SE,135,0.0,0.0,95,0.00,,,0.00,WUHU216HW,2013-01-15 20:53:00,
2013-01-15 15:58:00,51.7,50.2,29.99,SE,135,0.0,0.0,95,0.00,,,0.00,WUHU216HW,2013-01-15 20:58:00,
2013-01-15 16:03:00,51.7,50.2,29.99,SE,135,0.4,0.4,95,0.00,,,0.00,WUHU216HW,2013-01-15 21:03:00,
2013-01-15 16:08:00,51.7,50.2,30.00,SE,135,0.0,0.4,95,0.00,,,0.00,WUHU216HW,2013-01-15 21:08:00,
2013-01-15 16:13:00,51.7,50.2,29.99,SE,135,0.0,0.0,95,0.00,,,0.00,WUHU216HW,2013-01-15 21:13:00,
2013-01-15 16:18:00,51.7,50.2,30.00,SE,135,0.0,0.0,95,0.00,,,0.00,WUHU216HW,2013-01-15 21:18:00,
2013-01-15 16:23:00,51.7,50.2,30.00,SE,135,0.0,0.2,95,0.00,,,0.00,WUHU216HW,2013-01-15 21:23:00,
2013-01-15 16:28:00,51.8,50.4,30.00,SE,135,0.0,0.2,95,0.00,,,0.00,WUHU216HW,2013-01-15 21:28:00,
2013-01-15 16:33:00,51.8,50.4,29.99,SE,135,0.0,0.0,95,0.00,,,0.00,WUHU216HW,2013-01-15 21:33:00,
2013-01-15 16:38:00,51.8,50.4,29.99,SE,135,0.0,0.2,95,0.00,,,0.00,WUHU216HW,2013-01-15 21:38:00,
2013-01-15 16:43:00,51.8,50.4,29.99,SE,135,0.0,0.2,95,0.00,,,0.00,WUHU216HW,2013-01-15 21:43:00,
2013-01-15 16:48:00,51.8,50.4,29.99,SE,135,0.0,0.0,95,0.00,,,0.00,WUHU216HW,2013-01-15 21:48:00,
2013-01-15 16:53:00,51.8,50.4,29.99,SE,135,0.0,0.0,95,0.00,,,0.00,WUHU216HW,2013-01-15 21:53:00,
2013-01-15 16:58:00,51.8,50.4,29.99,SE,135,0.0,0.0,95,0.00,,,0.00,WUHU216HW,2013-01-15 21:58:00,
2013-01-15 17:03:00,51.8,50.4,29.99,SE,135,0.0,0.0,95,0.00,,,0.00,WUHU216HW,2013-01-15 22:03:00,
2013-01-15 17:08:00,51.8,50.4,30.00,SE,135,0.0,0.0,95,0.00,,,0.00,WUHU216HW,2013-01-15 22:08:00,
2013-01-15 17:13:00,51.8,50.4,30.00,SE,135,0.0,0.0,95,0.00,,,0.00,WUHU216HW,2013-01-15 22:13:00,
2013-01-15 17:18:00,51.8,50.4,30.01,SE,135,0.0,0.0,95,0.00,,,0.00,WUHU216HW,2013-01-15 22:18:00,
2013-01-15 17:23:00,51.8,50.4,30.00,SE,135,0.0,0.0,95,0.00,,,0.00,WUHU216HW,2013-01-15 22:23:00,
2013-01-15 17:28:00,51.8,50.4,30.00,SE,135,0.2,0.4,95,0.00,,,0.00,WUHU216HW,2013-01-15 22:28:00,
2013-01-15 17:33:00,51.8,50.4,30.00,SE,135,0.0,0.4,95,0.00,,,0.00,WUHU216HW,2013-01-15 22:33:00,
2013-01-15 17:38:00,51.8,50.4,30.00,SE,135,0.0,0.0,95,0.00,,,0.00,WUHU216HW,2013-01-15 22:38:00,
2013-01-15 17:43:00,51.8,50.4,30.00,SE,135,0.0,0.0,95,0.00,,,0.00,WUHU216HW,2013-01-15 22:43:00,
2013-01-15 17:48:00,51.8,50.4,30.00,SE,135,0.0,0.2,95,0.00,,,0.00,WUHU216HW,2013-01-15 22:48:00,
2013-01-15 17:53:00,51.8,50.4,30.01,SE,135,0.0,0.2,95,0.00,,,0.00,WUHU216HW,2013-01-15 22:53:00,
2013-01-15 17:58:00,51.8,50.4,30.01,SE,135,0.0,0.2,95,0.00,,,0.00,WUHU216HW,2013-01-15 22:58:00,
2013-01-15 18:04:00,51.8,50.4,29.99,SE,135,0.0,0.2,95,0.00,,,0.00,WUHU216HW,2013-01-15 23:04:00,
2013-01-15 18:09:00,51.8,50.4,30.00,ESE,113,0.0,0.0,95,0.00,,,0.00,WUHU216HW,2013-01-15 23:09:00,
2013-01-15 18:14:00,51.7,50.2,30.00,ESE,113,0.0,0.0,95,0.00,,,0.00,WUHU216HW,2013-01-15 23:14:00,
2013-01-15 18:19:00,51.7,50.2,30.01,ESE,113,0.0,0.0,95,0.00,,,0.00,WUHU216HW,2013-01-15 23:19:00,
2013-01-15 18:24:00,51.7,50.2,30.00,East,90,0.0,0.0,95,0.00,,,0.00,WUHU216HW,2013-01-15 23:24:00,
2013-01-15 18:29:00,51.5,50.0,30.01,East,90,0.0,0.0,95,0.00,,,0.00,WUHU216HW,2013-01-15 23:29:00,
2013-01-15 18:34:00,51.5,50.0,30.00,East,90,0.0,0.0,95,0.00,,,0.00,WUHU216HW,2013-01-15 23:34:00,
2013-01-15 18:39:00,51.5,50.0,30.00,East,90,0.0,0.0,95,0.00,,,0.00,WUHU216HW,2013-01-15 23:39:00,
2013-01-15 18:44:00,51.5,50.0,30.00,East,90,0.0,0.0,95,0.00,,,0.00,WUHU216HW,2013-01-15 23:44:00,
2013-01-15 18:49:00,51.5,50.0,30.00,East,90,0.0,0.0,95,0.00,,,0.00,WUHU216HW,2013-01-15 23:49:00,
2013-01-15 18:54:00,51.5,50.0,30.01,East,90,0.0,0.0,95,0.00,,,0.00,WUHU216HW,2013-01-15 23:54:00,
2013-01-15 18:59:00,51.3,49.9,30.01,East,90,0.0,0.0,95,0.00,,,0.00,WUHU216HW,2013-01-15 23:59:00,
2013-01-15 19:04:00,51.3,49.9,30.01,SE,135,0.2,0.9,95,0.00,,,0.00,WUHU216HW,2013-01-16 00:04:00,
2013-01-15 19:09:00,51.3,49.9,30.01,WSW,248,0.0,0.9,95,0.00,,,0.00,WUHU216HW,2013-01-16 00:09:00,
2013-01-15 19:14:00,51.3,49.9,30.00,SSW,203,0.0,0.4,95,0.00,,,0.00,WUHU216HW,2013-01-16 00:14:00,
2013-01-15 19:19:00,51.5,50.0,29.99,ESE,113,0.0,0.4,95,0.00,,,0.00,WUHU216HW,2013-01-16 00:19:00,
2013-01-15 19:24:00,51.5,50.0,30.00,ESE,113,0.0,0.2,95,0.00,,,0.00,WUHU216HW,2013-01-16 00:24:00,
2013-01-15 19:29:00,51.5,50.0,30.00,ESE,113,0.0,0.0,95,0.00,,,0.00,WUHU216HW,2013-01-16 00:29:00,
2013-01-15 19:34:00,51.5,50.0,29.99,ESE,113,0.0,0.0,95,0.00,,,0.00,WUHU216HW,2013-01-16 00:34:00,
2013-01-15 19:39:00,51.5,50.0,29.99,ESE,113,0.0,0.7,95,0.00,,,0.00,WUHU216HW,2013-01-16 00:39:00,
2013-01-15 19:44:00,51.5,50.0,29.99,ESE,113,0.0,0.9,95,0.00,,,0.00,WUHU216HW,2013-01-16 00:44:00,
2013-01-15 19:49:00,51.5,50.0,29.99,ESE,113,0.0,0.9,95,0.00,,,0.00,WUHU216HW,2013-01-16 00:49:00,
2013-01-15 19:54:00,51.5,50.0,29.99,ESE,113,0.0,0.4,95,0.00,,,0.00,WUHU216HW,2013-01-16 00:54:00,
2013-01-15 19:59:00,51.5,50.0,29.99,ESE,113,0.0,0.0,95,0.00,,,0.00,WUHU216HW,2013-01-16 00:59:00,
2013-01-15 20:04:00,51.5,50.0,29.99,ESE,113,0.0,0.2,95,0.00,,,0.00,WUHU216HW,2013-01-16 01:04:00,
2013-01-15 20:09:00,51.5,50.0,29.99,ESE,113,0.0,0.4,95,0.00,,,0.00,WUHU216HW,2013-01-16 01:09:00,
2013-01-15 20:14:00,51.5,50.0,29.99,ESE,113,0.0,0.4,95,0.00,,,0.00,WUHU216HW,2013-01-16 01:14:00,
2013-01-15 20:19:00,51.5,50.0,29.99,ESE,113,0.0,0.0,95,0.00,,,0.00,WUHU216HW,2013-01-16 01:19:00,
2013-01-15 20:24:00,51.5,50.0,29.99,ENE,68,0.0,0.4,95,0.00,,,0.00,WUHU216HW,2013-01-16 01:24:00,
2013-01-15 20:30:00,51.5,50.0,29.98,West,270,0.4,0.4,95,0.00,,,0.00,WUHU216HW,2013-01-16 01:30:00,
2013-01-15 20:35:00,51.5,50.0,29.98,SW,225,0.0,0.4,95,0.00,,,0.00,WUHU216HW,2013-01-16 01:35:00,
2013-01-15 20:40:00,51.7,50.2,29.98,SSW,203,0.0,0.2,95,0.00,,,0.00,WUHU216HW,2013-01-16 01:40:00,
2013-01-15 20:45:00,51.8,50.4,29.98,SSW,203,0.2,1.8,95,0.00,,,0.00,WUHU216HW,2013-01-16 01:45:00,
2013-01-15 20:50:00,51.8,50.4,29.98,West,270,0.4,1.8,95,0.00,,,0.00,WUHU216HW,2013-01-16 01:50:00,
2013-01-15 20:55:00,51.8,50.4,29.98,WSW,248,0.0,0.9,95,0.00,,,0.00,WUHU216HW,2013-01-16 01:55:00,
2013-01-15 21:00:00,51.8,50.4,29.99,WSW,248,0.0,0.4,95,0.00,,,0.00,WUHU216HW,2013-01-16 02:00:00,
2013-01-15 21:05:00,51.8,50.4,29.98,WSW,248,0.0,0.0,95,0.00,,,0.00,WUHU216HW,2013-01-16 02:05:00,
2013-01-15 21:10:00,51.8,50.4,29.98,NW,315,0.0,0.2,95,0.00,,,0.00,WUHU216HW,2013-01-16 02:10:00,
2013-01-15 21:15:00,51.7,50.2,29.98,WNW,293,1.1,1.1,95,0.00,,,0.00,WUHU216HW,2013-01-16 02:15:00,
2013-01-15 21:20:00,51.7,50.2,29.99,NNW,338,0.0,1.1,95,0.00,,,0.00,WUHU216HW,2013-01-16 02:20:00,
2013-01-15 21:25:00,51.7,50.2,29.98,NNW,338,0.0,0.0,95,0.00,,,0.00,WUHU216HW,2013-01-16 02:25:00,
2013-01-15 21:30:00,51.7,50.2,29.97,NW,315,0.0,0.0,95,0.00,,,0.00,WUHU216HW,2013-01-16 02:30:00,
2013-01-15 21:35:00,51.7,50.2,29.98,NE,45,0.0,0.0,95,0.00,,,0.00,WUHU216HW,2013-01-16 02:35:00,
2013-01-15 21:40:00,51.7,50.2,29.98,NNE,23,0.0,0.0,95,0.00,,,0.00,WUHU216HW,2013-01-16 02:40:00,
2013-01-15 21:45:00,51.7,50.2,29.97,East,90,0.0,0.0,95,0.00,,,0.00,WUHU216HW,2013-01-16 02:45:00,
2013-01-15 21:50:00,51.8,50.4,29.98,East,90,0.0,0.4,95,0.00,,,0.00,WUHU216HW,2013-01-16 02:50:00,
2013-01-15 21:55:00,51.8,50.4,29.97,East,90,0.0,0.4,95,0.00,,,0.00,WUHU216HW,2013-01-16 02:55:00,
2013-01-15 22:00:00,51.8,50.4,29.98,SE,135,0.0,0.7,95,0.00,,,0.00,WUHU216HW,2013-01-16 03:00:00,
2013-01-15 22:05:00,51.8,50.4,29.99,SE,135,2.0,2.0,95,0.00,,,0.00,WUHU216HW,2013-01-16 03:05:00,
2013-01-15 22:10:00,52.0,50.6,29.97,SE,135,0.0,2.0,95,0.00,,,0.00,WUHU216HW,2013-01-16 03:10:00,
2013-01-15 22:15:00,52.0,50.6,29.97,SE,135,0.0,0.4,95,0.00,,,0.00,WUHU216HW,2013-01-16 03:15:00,
2013-01-15 22:20:00,52.0,50.6,29.98,SE,135,0.0,0.0,95,0.00,,,0.00,WUHU216HW,2013-01-16 03:20:00,
2013-01-15 22:25:00,52.0,50.6,29.98,WNW,293,0.0,0.2,95,0.00,,,0.00,WUHU216HW,2013-01-16 03:25:00,
2013-01-15 22:30:00,52.2,50.8,29.98,WNW,293,0.0,0.2,95,0.00,,,0.00,WUHU216HW,2013-01-16 03:30:00,
2013-01-15 22:35:00,52.2,50.8,29.98,WNW,293,0.0,0.0,95,0.00,,,0.00,WUHU216HW,2013-01-16 03:35:00,
2013-01-15 22:40:00,52.2,50.8,29.98,WNW,293,0.0,0.0,95,0.00,,,0.00,WUHU216HW,2013-01-16 03:40:00,
2013-01-15 22:45:00,52.2,50.8,29.97,NNE,23,0.0,0.4,95,0.00,,,0.00,WUHU216HW,2013-01-16 03:45:00,
2013-01-15 22:50:00,52.2,50.8,29.97,SE,135,0.4,0.4,95,0.00,,,0.00,WUHU216HW,2013-01-16 03:50:00,
2013-01-15 22:55:00,52.4,50.9,29.97,ESE,113,0.0,1.6,95,0.00,,,0.00,WUHU216HW,2013-01-16 03:55:00,
2013-01-15 23:00:00,52.4,50.9,29.98,ESE,113,0.0,1.6,95,0.00,,,0.00,WUHU216HW,2013-01-16 04:00:00,
2013-01-15 23:05:00,52.4,50.9,29.97,SE,135,0.0,0.4,95,0.00,,,0.00,WUHU216HW,2013-01-16 04:05:00,
2013-01-15 23:10:00,52.4,50.9,29.97,WSW,248,0.0,0.4,95,0.00,,,0.00,WUHU216HW,2013-01-16 04:10:00,
2013-01-15 23:15:00,52.4,50.9,29.97,SSW,203,0.0,0.4,95,0.00,,,0.00,WUHU216HW,2013-01-16 04:15:00,
2013-01-15 23:20:00,52.4,50.9,29.97,SW,225,0.0,0.4,95,0.00,,,0.00,WUHU216HW,2013-01-16 04:20:00,
2013-01-15 23:25:00,52.4,50.9,29.96,SW,225,0.0,0.0,95,0.00,,,0.00,WUHU216HW,2013-01-16 04:25:00,
2013-01-15 23:30:00,52.2,50.8,29.97,ENE,68,0.0,0.0,95,0.00,,,0.00,WUHU216HW,2013-01-16 04:30:00,
2013-01-15 23:35:00,52.2,50.8,29.97,ENE,68,0.2,0.2,95,0.00,,,0.00,WUHU216HW,2013-01-16 04:35:00,
2013-01-15 23:40:00,52.2,50.8,29.97,ENE,68,0.0,0.2,95,0.00,,,0.00,WUHU216HW,2013-01-16 04:40:00,
2013-01-15 23:45:00,52.2,50.8,29.97,ENE,68,0.0,0.0,95,0.00,,,0.00,WUHU216HW,2013-01-16 04:45:00,
2013-01-15 23:50:00,52.2,50.8,29.95,NNE,23,0.0,0.0,95,0.00,,,0.00,WUHU216HW,2013-01-16 04:50:00,
2013-01-15 23:55:00,52.0,50.6,29.97,NNE,23,0.0,0.0,95,0.00,,,0.00,WUHU216HW,2013-01-16 04:55:00,